createdAt,value
2023-04-26T00:01:44.225Z,3.67
2023-04-26T00:04:11.795Z,3.97
2023-04-26T00:06:39.377Z,4.72
2023-04-26T00:09:06.988Z,5.03
2023-04-26T00:11:34.107Z,5.05
2023-04-26T00:14:01.537Z,4.35
2023-04-26T00:16:28.535Z,4.40
2023-04-26T00:18:57.968Z,4.32
2023-04-26T00:21:25.055Z,4.10
2023-04-26T00:23:52.457Z,3.75
2023-04-26T00:26:19.435Z,4.03
2023-04-26T00:28:46.968Z,4.22
2023-04-26T00:31:15.893Z,3.75
2023-04-26T00:33:44.094Z,3.83
2023-04-26T00:36:13.395Z,3.80
2023-04-26T00:38:41.332Z,3.47
2023-04-26T00:41:08.370Z,3.58
2023-04-26T00:43:35.880Z,3.58
2023-04-26T00:46:03.425Z,3.47
2023-04-26T00:48:30.751Z,3.42
2023-04-26T00:50:57.681Z,3.40
2023-04-26T00:53:27.212Z,3.47
2023-04-26T00:55:54.479Z,3.17
2023-04-26T00:58:21.906Z,3.08
2023-04-26T01:00:50.416Z,3.22
2023-04-26T01:03:18.160Z,3.30
2023-04-26T01:05:45.633Z,3.20
2023-04-26T01:08:13.020Z,3.50
2023-04-26T01:10:41.508Z,3.30
2023-04-26T01:13:09.091Z,3.47
2023-04-26T01:15:36.773Z,2.90
2023-04-26T01:18:04.185Z,3.38
2023-04-26T01:20:31.201Z,3.30
2023-04-26T01:22:59.962Z,3.08
2023-04-26T01:25:26.994Z,2.67
2023-04-26T01:27:54.179Z,3.10
2023-04-26T01:30:21.085Z,2.88
2023-04-26T01:32:48.414Z,2.72
2023-04-26T01:35:15.896Z,2.75
2023-04-26T01:37:43.356Z,2.40
2023-04-26T01:40:12.824Z,2.72
2023-04-26T01:42:40.476Z,2.90
2023-04-26T01:45:08.013Z,2.60
2023-04-26T01:47:35.261Z,2.90
2023-04-26T01:50:02.357Z,3.00
2023-04-26T01:52:29.630Z,2.90
2023-04-26T01:54:57.403Z,3.70
2023-04-26T01:57:26.011Z,5.50
2023-04-26T01:59:54.344Z,5.55
2023-04-26T02:02:21.852Z,5.53
2023-04-26T02:04:48.940Z,5.68
2023-04-26T02:07:16.226Z,5.15
2023-04-26T02:09:43.209Z,6.45
2023-04-26T02:12:10.517Z,6.68
2023-04-26T02:14:39.024Z,6.88
2023-04-26T02:17:06.399Z,7.25
2023-04-26T02:19:33.710Z,7.13
2023-04-26T02:22:01.108Z,7.65
2023-04-26T02:24:28.023Z,7.57
2023-04-26T02:26:55.370Z,6.60
2023-04-26T02:29:35.900Z,6.68
2023-04-26T02:32:11.621Z,6.72
2023-04-26T02:34:39.154Z,6.22
2023-04-26T02:37:07.467Z,5.35
2023-04-26T02:39:34.529Z,4.90
2023-04-26T02:42:01.911Z,4.75
2023-04-26T02:44:30.631Z,4.65
2023-04-26T02:49:26.416Z,3.88
2023-04-26T02:51:54.343Z,3.95
2023-04-26T02:54:21.371Z,3.60
2023-04-26T02:56:48.633Z,3.40
2023-04-26T02:59:15.899Z,3.20
2023-04-26T03:01:43.290Z,3.30
2023-04-26T03:04:10.567Z,3.58
2023-04-26T03:06:39.223Z,3.05
2023-04-26T03:09:06.156Z,3.08
2023-04-26T03:11:34.234Z,3.65
2023-04-26T03:14:01.316Z,3.58
2023-04-26T03:16:29.025Z,3.30
2023-04-26T03:18:56.144Z,3.47
2023-04-26T03:21:23.420Z,3.80
2023-04-26T03:23:51.799Z,8.18
2023-04-26T03:26:19.701Z,6.47
2023-04-26T03:28:46.753Z,4.70
2023-04-26T03:31:14.057Z,3.90
2023-04-26T03:33:41.027Z,4.13
2023-04-26T03:36:09.367Z,3.92
2023-04-26T03:38:36.343Z,3.13
2023-04-26T03:41:05.136Z,3.40
2023-04-26T03:43:32.576Z,3.42
2023-04-26T03:46:01.153Z,3.40
2023-04-26T03:48:28.095Z,3.55
2023-04-26T03:50:55.356Z,3.53
2023-04-26T03:53:23.009Z,4.55
2023-04-26T03:55:50.287Z,5.30
2023-04-26T03:58:18.624Z,4.70
2023-04-26T04:00:46.170Z,4.68
2023-04-26T04:03:13.337Z,4.63
2023-04-26T04:05:41.285Z,4.40
2023-04-26T04:08:08.350Z,4.50
2023-04-26T04:10:36.954Z,4.68
2023-04-26T04:13:04.225Z,4.40
2023-04-26T04:15:32.966Z,4.93
2023-04-26T04:18:00.323Z,5.05
2023-04-26T04:20:27.755Z,5.78
2023-04-26T04:22:55.297Z,6.13
2023-04-26T04:25:23.070Z,5.70
2023-04-26T04:30:17.809Z,4.38
2023-04-26T04:32:46.912Z,4.35
2023-04-26T04:35:14.996Z,4.93
2023-04-26T04:37:41.988Z,4.82
2023-04-26T04:40:11.688Z,4.63
2023-04-26T04:42:39.145Z,5.45
2023-04-26T04:45:07.828Z,5.57
2023-04-26T04:47:37.702Z,4.82
2023-04-26T04:50:07.871Z,4.38
2023-04-26T04:52:34.817Z,4.57
2023-04-26T04:55:02.227Z,4.97
2023-04-26T04:57:29.801Z,6.13
2023-04-26T04:59:57.063Z,4.95
2023-04-26T05:02:24.344Z,5.43
2023-04-26T05:04:51.803Z,4.45
2023-04-26T05:07:20.194Z,4.70
2023-04-26T05:09:47.635Z,4.22
2023-04-26T05:12:14.537Z,4.22
2023-04-26T05:14:41.871Z,4.00
2023-04-26T05:17:08.851Z,4.18
2023-04-26T05:19:37.113Z,4.22
2023-04-26T05:22:04.387Z,3.85
2023-04-26T05:24:33.544Z,4.53
2023-04-26T05:27:00.996Z,3.92
2023-04-26T05:29:30.165Z,4.22
2023-04-26T05:31:57.374Z,4.45
2023-04-26T05:34:25.050Z,4.55
2023-04-26T05:36:52.068Z,4.35
2023-04-26T05:39:20.680Z,4.45
2023-04-26T05:41:49.191Z,4.22
2023-04-26T05:44:16.724Z,4.13
2023-04-26T05:46:44.021Z,4.25
2023-04-26T05:49:11.211Z,5.05
2023-04-26T05:51:38.212Z,4.63
2023-04-26T05:54:05.898Z,4.85
2023-04-26T05:56:33.105Z,5.38
2023-04-26T05:59:01.791Z,5.43
2023-04-26T06:01:28.861Z,5.85
2023-04-26T06:03:59.903Z,5.50
2023-04-26T06:06:28.460Z,5.60
2023-04-26T06:08:55.911Z,5.97
2023-04-26T06:11:22.966Z,5.90
2023-04-26T06:13:50.634Z,6.28
2023-04-26T06:16:19.680Z,6.03
2023-04-26T06:21:14.013Z,6.65
2023-04-26T06:23:41.485Z,7.05
2023-04-26T06:26:08.451Z,6.38
2023-04-26T06:28:35.790Z,5.82
2023-04-26T06:31:02.875Z,6.07
2023-04-26T06:33:32.439Z,6.40
2023-04-26T06:35:59.445Z,6.45
2023-04-26T06:38:26.913Z,6.53
2023-04-26T06:40:54.376Z,6.85
2023-04-26T06:43:21.768Z,6.80
2023-04-26T06:45:49.509Z,7.22
2023-04-26T06:48:17.145Z,7.45
2023-04-26T06:50:45.592Z,6.82
2023-04-26T06:53:12.972Z,6.70
2023-04-26T06:55:42.925Z,6.53
2023-04-26T06:58:10.701Z,6.68
2023-04-26T07:00:38.003Z,5.65
2023-04-26T07:03:06.830Z,6.47
2023-04-26T07:05:33.978Z,6.45
2023-04-26T07:08:02.752Z,6.30
2023-04-26T07:10:29.633Z,5.85
2023-04-26T07:12:57.011Z,6.60
2023-04-26T07:15:24.169Z,5.85
2023-04-26T07:17:52.287Z,6.60
2023-04-26T07:20:22.878Z,6.10
2023-04-26T07:22:52.344Z,6.68
2023-04-26T07:25:20.989Z,6.88
2023-04-26T07:30:16.261Z,5.90
2023-04-26T07:32:43.632Z,6.13
2023-04-26T07:35:16.283Z,5.82
2023-04-26T07:37:44.486Z,5.75
2023-04-26T07:40:13.674Z,6.35
2023-04-26T07:42:42.558Z,5.78
2023-04-26T07:45:11.053Z,6.45
2023-04-26T07:47:38.450Z,6.40
2023-04-26T07:50:07.260Z,6.47
2023-04-26T07:52:34.721Z,7.50
2023-04-26T07:55:01.849Z,6.72
2023-04-26T07:57:29.140Z,6.80
2023-04-26T07:59:57.681Z,8.80
2023-04-26T08:02:36.841Z,5.97
2023-04-26T08:05:11.178Z,5.88
2023-04-26T08:07:38.935Z,5.95
2023-04-26T08:10:07.194Z,5.80
2023-04-26T08:12:35.437Z,5.18
2023-04-26T08:15:05.116Z,4.93
2023-04-26T08:17:32.896Z,5.03
2023-04-26T08:19:59.892Z,6.00
2023-04-26T08:22:27.573Z,5.30
2023-04-26T08:24:55.963Z,5.68
2023-04-26T08:27:23.883Z,4.78
2023-04-26T08:29:51.259Z,5.50
2023-04-26T08:32:20.375Z,5.63
2023-04-26T08:37:16.508Z,5.35
2023-04-26T08:39:43.473Z,6.32
2023-04-26T08:42:14.544Z,6.43
2023-04-26T08:44:42.895Z,5.60
2023-04-26T08:47:16.808Z,5.22
2023-04-26T08:49:48.755Z,5.18
2023-04-26T08:52:17.185Z,5.47
2023-04-26T08:54:46.860Z,4.82
2023-04-26T08:57:15.562Z,4.85
2023-04-26T08:59:44.305Z,4.72
2023-04-26T09:02:17.214Z,4.53
2023-04-26T09:04:46.660Z,4.18
2023-04-26T09:07:21.320Z,4.25
2023-04-26T09:09:52.864Z,3.78
2023-04-26T09:12:20.813Z,3.88
2023-04-26T09:14:48.506Z,4.10
2023-04-26T09:17:26.188Z,3.22
2023-04-26T09:19:55.047Z,3.33
2023-04-26T09:22:29.889Z,3.55
2023-04-26T09:24:57.417Z,3.50
2023-04-26T09:27:33.295Z,4.38
2023-04-26T09:30:05.984Z,3.58
2023-04-26T09:32:53.707Z,3.40
2023-04-26T09:35:29.127Z,3.50
2023-04-26T09:38:03.372Z,3.70
2023-04-26T09:40:34.640Z,3.60
2023-04-26T09:43:04.052Z,3.13
2023-04-26T09:45:32.311Z,3.58
2023-04-26T09:48:20.527Z,3.50
2023-04-26T09:50:50.703Z,3.40
2023-04-26T09:53:34.265Z,4.40
2023-04-26T09:56:08.855Z,3.30
2023-04-26T09:58:37.571Z,3.30
2023-04-26T10:01:08.543Z,3.30
2023-04-26T10:03:37.322Z,3.30
2023-04-26T10:06:06.719Z,3.10
2023-04-26T10:08:34.409Z,3.00
2023-04-26T10:11:04.203Z,2.70
2023-04-26T10:13:33.173Z,3.20
2023-04-26T10:16:01.969Z,3.15
2023-04-26T10:18:30.528Z,3.35
2023-04-26T10:21:00.093Z,2.72
2023-04-26T10:23:29.382Z,3.53
2023-04-26T10:28:58.930Z,3.40
2023-04-26T10:32:02.463Z,2.97
2023-04-26T10:34:31.459Z,3.25
2023-04-26T10:37:09.255Z,3.35
2023-04-26T10:39:39.077Z,3.27
2023-04-26T10:42:24.029Z,3.50
2023-04-26T10:44:52.471Z,3.05
2023-04-26T10:47:28.112Z,3.63
2023-04-26T10:50:05.647Z,4.90
2023-04-26T10:52:33.862Z,3.55
2023-04-26T10:55:02.865Z,3.50
2023-04-26T11:00:21.306Z,3.05
2023-04-26T11:02:57.489Z,3.30
2023-04-26T11:05:53.827Z,2.97
2023-04-26T11:08:25.041Z,2.90
2023-04-26T11:10:59.142Z,3.17
2023-04-26T11:13:26.705Z,3.58
2023-04-26T11:16:00.113Z,3.92
2023-04-26T11:18:27.485Z,4.05
2023-04-26T11:20:55.082Z,4.53
2023-04-26T11:23:23.322Z,4.00
2023-04-26T11:25:51.460Z,4.10
2023-04-26T11:28:20.881Z,4.00
2023-04-26T11:30:49.236Z,3.92
2023-04-26T11:33:18.816Z,3.45
2023-04-26T11:35:48.004Z,3.97
2023-04-26T11:38:15.724Z,3.90
2023-04-26T11:40:43.549Z,3.67
2023-04-26T11:43:11.733Z,3.80
2023-04-26T11:45:41.029Z,3.10
2023-04-26T11:48:11.180Z,3.30
2023-04-26T11:50:39.945Z,3.42
2023-04-26T11:53:08.793Z,2.88
2023-04-26T11:55:36.183Z,2.90
2023-04-26T11:58:11.711Z,2.70
2023-04-26T12:00:59.166Z,2.78
2023-04-26T12:03:30.577Z,3.47
2023-04-26T12:05:58.492Z,2.90
2023-04-26T12:08:26.516Z,2.75
2023-04-26T12:10:54.147Z,2.67
2023-04-26T12:13:21.384Z,2.67
2023-04-26T12:15:50.412Z,2.72
2023-04-26T12:18:18.912Z,2.75
2023-04-26T12:20:46.939Z,2.75
2023-04-26T12:23:16.507Z,2.33
2023-04-26T12:25:53.504Z,2.75
2023-04-26T12:28:20.882Z,3.10
2023-04-26T12:30:49.066Z,3.13
2023-04-26T12:33:17.928Z,3.60
2023-04-26T12:35:47.033Z,2.80
2023-04-26T12:38:15.778Z,3.75
2023-04-26T12:40:46.067Z,3.40
2023-04-26T12:43:13.301Z,3.33
2023-04-26T12:45:40.592Z,3.10
2023-04-26T12:48:08.151Z,3.25
2023-04-26T12:50:35.583Z,2.95
2023-04-26T12:53:04.513Z,3.15
2023-04-26T12:55:33.058Z,2.90
2023-04-26T12:58:02.683Z,3.08
2023-04-26T13:00:30.144Z,3.17
2023-04-26T13:02:57.491Z,3.10
2023-04-26T13:05:25.494Z,2.80
2023-04-26T13:07:52.660Z,2.85
2023-04-26T13:10:21.401Z,2.75
2023-04-26T13:12:48.532Z,2.80
2023-04-26T13:15:17.627Z,2.50
2023-04-26T13:17:46.430Z,2.55
2023-04-26T13:22:42.533Z,2.55
2023-04-26T13:25:11.333Z,2.40
2023-04-26T13:27:39.885Z,2.78
2023-04-26T13:30:08.590Z,3.00
2023-04-26T13:32:36.268Z,3.45
2023-04-26T13:35:04.414Z,2.87
2023-04-26T13:37:31.776Z,2.87
2023-04-26T13:39:59.997Z,2.33
2023-04-26T13:42:27.569Z,2.90
2023-04-26T13:44:56.406Z,2.63
2023-04-26T13:47:23.684Z,3.03
2023-04-26T13:49:51.291Z,2.50
2023-04-26T13:52:18.642Z,2.97
2023-04-26T13:54:46.042Z,2.72
2023-04-26T13:57:13.385Z,2.80
2023-04-26T13:59:40.990Z,3.33
2023-04-26T14:02:10.319Z,2.70
2023-04-26T14:04:38.422Z,2.28
2023-04-26T14:07:06.154Z,2.90
2023-04-26T14:09:33.677Z,3.05
2023-04-26T14:12:08.085Z,2.80
2023-04-26T14:14:36.541Z,2.88
2023-04-26T14:17:03.865Z,2.75
2023-04-26T14:19:32.448Z,2.67
2023-04-26T14:21:59.643Z,2.45
2023-04-26T14:24:26.907Z,2.92
2023-04-26T14:26:53.987Z,3.10
2023-04-26T14:29:21.345Z,2.67
2023-04-26T14:31:48.397Z,3.42
2023-04-26T14:34:15.825Z,3.00
2023-04-26T14:36:44.440Z,3.17
2023-04-26T14:39:11.784Z,3.08
2023-04-26T14:41:38.755Z,3.08
2023-04-26T14:44:06.232Z,3.05
2023-04-26T14:46:33.273Z,4.35
2023-04-26T14:49:00.798Z,3.45
2023-04-26T14:51:28.739Z,2.88
2023-04-26T14:53:57.461Z,3.28
2023-04-26T14:56:24.464Z,2.70
2023-04-26T14:58:51.847Z,3.28
2023-04-26T15:01:18.929Z,3.00
2023-04-26T15:03:46.803Z,3.28
2023-04-26T15:06:14.290Z,3.13
2023-04-26T15:08:41.745Z,3.58
2023-04-26T15:11:10.349Z,3.58
2023-04-26T15:16:07.563Z,3.15
2023-04-26T15:18:35.439Z,3.40
2023-04-26T15:21:02.815Z,3.55
2023-04-26T15:23:30.105Z,3.72
2023-04-26T15:26:01.832Z,3.38
2023-04-26T15:28:30.526Z,3.53
2023-04-26T15:31:02.235Z,3.58
2023-04-26T15:33:30.506Z,2.42
2023-04-26T15:35:57.616Z,2.60
2023-04-26T15:38:24.951Z,2.53
2023-04-26T15:40:52.100Z,3.15
2023-04-26T15:43:20.114Z,2.80
2023-04-26T15:45:49.718Z,3.17
2023-04-26T15:48:17.734Z,3.25
2023-04-26T15:50:45.020Z,2.90
2023-04-26T15:53:12.533Z,3.35
2023-04-26T15:55:39.471Z,3.33
2023-04-26T15:58:06.925Z,2.97
2023-04-26T16:00:34.323Z,2.83
2023-04-26T16:03:03.275Z,3.05
2023-04-26T16:10:27.243Z,2.83
2023-04-26T16:12:54.650Z,3.35
2023-04-26T16:15:22.173Z,3.15
2023-04-26T16:17:49.526Z,3.15
2023-04-26T16:20:18.022Z,3.28
2023-04-26T16:22:45.686Z,3.28
2023-04-26T16:25:12.803Z,3.15
2023-04-26T16:27:40.048Z,2.53
2023-04-26T16:30:08.683Z,2.95
2023-04-26T16:35:03.103Z,2.60
2023-04-26T16:37:32.018Z,2.30
2023-04-26T16:39:59.067Z,2.58
2023-04-26T16:42:26.442Z,2.80
2023-04-26T16:44:54.990Z,2.53
2023-04-26T16:49:49.522Z,2.58
2023-04-26T16:52:16.909Z,2.63
2023-04-26T16:54:45.582Z,2.60
2023-04-26T16:59:41.055Z,2.58
2023-04-26T17:02:08.470Z,2.35
2023-04-26T17:04:35.953Z,2.95
2023-04-26T17:07:04.142Z,3.17
2023-04-26T17:09:31.476Z,3.38
2023-04-26T17:12:00.213Z,3.53
2023-04-26T17:14:27.846Z,3.40
2023-04-26T17:16:55.074Z,3.13
2023-04-26T17:19:22.617Z,3.15
2023-04-26T17:21:49.977Z,3.17
2023-04-26T17:24:17.654Z,3.45
2023-04-26T17:26:45.102Z,3.65
2023-04-26T17:29:14.119Z,3.85
2023-04-26T17:31:41.430Z,3.85
2023-04-26T17:34:08.772Z,3.35
2023-04-26T17:36:35.977Z,4.18
2023-04-26T17:39:03.408Z,3.80
2023-04-26T17:41:30.716Z,3.63
2023-04-26T17:43:57.759Z,3.92
2023-04-26T17:46:26.525Z,3.55
2023-04-26T17:48:53.991Z,3.42
2023-04-26T17:51:21.253Z,3.72
2023-04-26T17:53:48.542Z,3.85
2023-04-26T17:56:16.057Z,4.28
2023-04-26T17:58:43.070Z,5.47
2023-04-26T18:01:10.989Z,4.78
2023-04-26T18:03:42.648Z,4.38
2023-04-26T18:06:10.207Z,4.35
2023-04-26T18:08:37.535Z,4.72
2023-04-26T18:11:04.901Z,4.28
2023-04-26T18:13:33.255Z,4.43
2023-04-26T18:16:00.816Z,4.75
2023-04-26T18:18:28.103Z,4.65
2023-04-26T18:20:56.979Z,5.03
2023-04-26T18:23:25.129Z,5.10
2023-04-26T18:25:52.754Z,5.47
2023-04-26T18:28:19.725Z,5.68
2023-04-26T18:30:47.311Z,5.22
2023-04-26T18:33:14.569Z,4.28
2023-04-26T18:35:42.008Z,4.47
2023-04-26T18:38:10.390Z,5.00
2023-04-26T18:40:37.846Z,4.90
2023-04-26T18:43:04.848Z,4.63
2023-04-26T18:45:33.054Z,5.13
2023-04-26T18:48:00.206Z,5.70
2023-04-26T18:50:27.567Z,5.00
2023-04-26T18:52:54.627Z,5.45
2023-04-26T18:55:26.245Z,5.20
2023-04-26T18:57:53.264Z,4.85
2023-04-26T19:00:20.916Z,5.35
2023-04-26T19:02:48.630Z,5.25
2023-04-26T19:05:16.147Z,4.90
2023-04-26T19:07:44.204Z,4.97
2023-04-26T19:10:11.823Z,4.75
2023-04-26T19:12:45.476Z,5.10
2023-04-26T19:15:13.367Z,5.85
2023-04-26T19:17:40.583Z,5.13
2023-04-26T19:20:12.506Z,4.70
2023-04-26T19:22:41.901Z,5.10
2023-04-26T19:25:10.177Z,5.35
2023-04-26T19:27:37.255Z,4.93
2023-04-26T19:30:07.756Z,5.68
2023-04-26T19:32:35.167Z,4.53
2023-04-26T19:35:02.357Z,5.22
2023-04-26T19:37:29.340Z,5.32
2023-04-26T19:39:56.813Z,5.25
2023-04-26T19:42:23.742Z,4.80
2023-04-26T19:44:53.532Z,5.05
2023-04-26T19:47:21.954Z,4.80
2023-04-26T19:49:51.230Z,4.57
2023-04-26T19:54:47.231Z,5.50
2023-04-26T19:57:14.282Z,6.47
2023-04-26T19:59:41.784Z,7.28
2023-04-26T20:02:08.824Z,7.05
2023-04-26T20:04:38.124Z,6.45
2023-04-26T20:07:05.108Z,6.28
2023-04-26T20:09:32.586Z,5.28
2023-04-26T20:12:00.244Z,6.13
2023-04-26T20:14:30.191Z,5.88
2023-04-26T20:17:02.136Z,6.65
2023-04-26T20:19:29.836Z,6.53
2023-04-26T20:21:58.142Z,6.78
2023-04-26T20:24:27.917Z,6.65
2023-04-26T20:26:55.979Z,6.05
2023-04-26T20:29:23.998Z,6.07
2023-04-26T20:31:51.302Z,6.10
2023-04-26T20:34:19.316Z,6.05
2023-04-26T20:36:46.651Z,5.68
2023-04-26T20:39:16.614Z,5.75
2023-04-26T20:41:43.499Z,4.60
2023-04-26T20:44:11.267Z,4.80
2023-04-26T20:46:38.492Z,4.55
2023-04-26T20:49:06.883Z,4.05
2023-04-26T20:51:34.182Z,4.30
2023-04-26T20:54:02.295Z,4.18
2023-04-26T20:56:30.646Z,4.78
2023-04-26T20:58:58.393Z,4.93
2023-04-26T21:01:25.405Z,4.50
2023-04-26T21:03:53.072Z,4.82
2023-04-26T21:06:20.344Z,4.68
2023-04-26T21:08:48.285Z,4.70
2023-04-26T21:11:15.317Z,4.68
2023-04-26T21:13:44.148Z,4.95
2023-04-26T21:16:11.206Z,4.68
2023-04-26T21:18:39.180Z,4.50
2023-04-26T21:21:06.256Z,4.38
2023-04-26T21:23:34.267Z,4.53
2023-04-26T21:26:01.527Z,4.43
2023-04-26T21:28:28.909Z,3.92
2023-04-26T21:31:04.729Z,4.22
2023-04-26T21:33:32.722Z,4.07
2023-04-26T21:36:00.659Z,4.25
2023-04-26T21:38:28.109Z,4.40
2023-04-26T21:40:55.748Z,4.85
2023-04-26T21:43:23.236Z,4.60
2023-04-26T21:45:51.825Z,4.45
2023-04-26T21:48:20.551Z,4.70
2023-04-26T21:50:49.667Z,4.72
2023-04-26T21:53:17.321Z,4.40
2023-04-26T21:55:44.439Z,4.20
2023-04-26T21:58:11.659Z,4.45
2023-04-26T22:00:38.724Z,3.97
2023-04-26T22:03:07.284Z,4.35
2023-04-26T22:05:35.973Z,4.30
2023-04-26T22:08:04.286Z,4.25
2023-04-26T22:10:31.666Z,4.13
2023-04-26T22:12:59.696Z,4.35
2023-04-26T22:15:26.921Z,3.72
2023-04-26T22:17:54.863Z,3.95
2023-04-26T22:20:22.565Z,3.78
2023-04-26T22:22:51.544Z,3.50
2023-04-26T22:25:18.419Z,3.80
2023-04-26T22:27:45.812Z,4.78
2023-04-26T22:30:24.775Z,3.90
2023-04-26T22:32:55.535Z,3.78
2023-04-26T22:35:23.027Z,4.25
2023-04-26T22:37:52.361Z,3.88
2023-04-26T22:40:19.504Z,4.72
2023-04-26T22:42:46.736Z,3.90
2023-04-26T22:45:14.305Z,3.40
2023-04-26T22:47:42.079Z,3.35
2023-04-26T22:50:10.235Z,3.20
2023-04-26T22:52:38.194Z,3.40
2023-04-26T22:55:07.990Z,3.53
2023-04-26T22:57:35.348Z,3.85
2023-04-26T23:00:02.694Z,3.55
2023-04-26T23:02:30.076Z,3.20
2023-04-26T23:04:57.313Z,3.20
2023-04-26T23:07:24.572Z,3.15
2023-04-26T23:09:51.586Z,3.20
2023-04-26T23:12:20.700Z,3.38
2023-04-26T23:14:50.833Z,2.90
2023-04-26T23:17:20.706Z,3.20
2023-04-26T23:19:47.817Z,3.00
2023-04-26T23:22:15.695Z,2.85
2023-04-26T23:24:43.107Z,3.25
2023-04-26T23:27:10.562Z,3.53
2023-04-26T23:29:39.024Z,3.17
2023-04-26T23:32:06.319Z,3.08
2023-04-26T23:34:33.212Z,3.45
2023-04-26T23:37:07.554Z,3.47
2023-04-26T23:39:36.069Z,3.38
2023-04-26T23:42:03.939Z,3.80
2023-04-26T23:44:31.057Z,3.33
2023-04-26T23:47:00.194Z,2.80
2023-04-26T23:49:27.266Z,3.13
2023-04-26T23:51:55.164Z,3.15
2023-04-26T23:54:22.536Z,3.20
2023-04-26T23:56:50.464Z,3.15
2023-04-26T23:59:21.377Z,2.92
